sensor_id;sensor_type;location;lat;lon;timestamp;P1;durP1;ratioP1;P2;durP2;ratioP2
65581;SDS011;52231;40.090;18.348;2024-01-30T00:01:36;8.73;;;4.00;;
65581;SDS011;52231;40.090;18.348;2024-01-30T00:04:28;13.02;;;4.50;;
65581;SDS011;52231;40.090;18.348;2024-01-30T00:07:13;10.52;;;4.18;;
65581;SDS011;52231;40.090;18.348;2024-01-30T00:10:05;12.23;;;4.60;;
65581;SDS011;52231;40.090;18.348;2024-01-30T00:12:45;9.55;;;4.18;;
65581;SDS011;52231;40.090;18.348;2024-01-30T00:15:39;11.77;;;4.60;;
65581;SDS011;52231;40.090;18.348;2024-01-30T00:18:37;10.05;;;4.40;;
65581;SDS011;52231;40.090;18.348;2024-01-30T00:21:20;10.35;;;3.90;;
65581;SDS011;52231;40.090;18.348;2024-01-30T00:24:14;10.73;;;4.47;;
65581;SDS011;52231;40.090;18.348;2024-01-30T00:27:08;9.57;;;4.25;;
65581;SDS011;52231;40.090;18.348;2024-01-30T00:29:42;9.02;;;3.88;;
65581;SDS011;52231;40.090;18.348;2024-01-30T00:32:31;11.40;;;4.68;;
65581;SDS011;52231;40.090;18.348;2024-01-30T00:35:05;11.40;;;4.55;;
65581;SDS011;52231;40.090;18.348;2024-01-30T00:37:43;10.73;;;4.47;;
65581;SDS011;52231;40.090;18.348;2024-01-30T00:40:34;13.32;;;4.32;;
65581;SDS011;52231;40.090;18.348;2024-01-30T00:43:19;16.63;;;5.22;;
65581;SDS011;52231;40.090;18.348;2024-01-30T00:46:02;12.75;;;4.97;;
65581;SDS011;52231;40.090;18.348;2024-01-30T00:48:45;12.20;;;4.85;;
65581;SDS011;52231;40.090;18.348;2024-01-30T00:51:18;11.88;;;5.10;;
65581;SDS011;52231;40.090;18.348;2024-01-30T00:54:11;10.95;;;4.75;;
65581;SDS011;52231;40.090;18.348;2024-01-30T00:57:03;12.57;;;4.25;;
65581;SDS011;52231;40.090;18.348;2024-01-30T00:59:49;12.25;;;4.88;;
65581;SDS011;52231;40.090;18.348;2024-01-30T01:02:29;11.15;;;4.45;;
65581;SDS011;52231;40.090;18.348;2024-01-30T01:08:09;10.30;;;4.05;;
65581;SDS011;52231;40.090;18.348;2024-01-30T01:13:29;10.82;;;4.38;;
65581;SDS011;52231;40.090;18.348;2024-01-30T01:16:07;10.82;;;4.53;;
65581;SDS011;52231;40.090;18.348;2024-01-30T01:18:46;12.38;;;5.03;;
65581;SDS011;52231;40.090;18.348;2024-01-30T01:22:01;12.43;;;4.63;;
65581;SDS011;52231;40.090;18.348;2024-01-30T01:24:32;12.98;;;4.88;;
65581;SDS011;52231;40.090;18.348;2024-01-30T01:27:04;13.50;;;5.28;;
65581;SDS011;52231;40.090;18.348;2024-01-30T01:29:45;12.77;;;5.20;;
65581;SDS011;52231;40.090;18.348;2024-01-30T01:32:20;13.35;;;4.72;;
65581;SDS011;52231;40.090;18.348;2024-01-30T01:35:09;10.13;;;4.18;;
65581;SDS011;52231;40.090;18.348;2024-01-30T01:38:30;11.07;;;4.22;;
65581;SDS011;52231;40.090;18.348;2024-01-30T01:41:33;11.93;;;4.70;;
65581;SDS011;52231;40.090;18.348;2024-01-30T01:44:27;11.05;;;4.90;;
65581;SDS011;52231;40.090;18.348;2024-01-30T01:47:20;12.85;;;4.43;;
65581;SDS011;52231;40.090;18.348;2024-01-30T01:50:22;11.88;;;5.03;;
65581;SDS011;52231;40.090;18.348;2024-01-30T01:53:03;15.00;;;4.90;;
65581;SDS011;52231;40.090;18.348;2024-01-30T01:55:51;11.32;;;4.80;;
65581;SDS011;52231;40.090;18.348;2024-01-30T01:58:35;11.45;;;4.93;;
65581;SDS011;52231;40.090;18.348;2024-01-30T02:01:22;10.10;;;4.53;;
65581;SDS011;52231;40.090;18.348;2024-01-30T02:04:30;11.43;;;4.97;;
65581;SDS011;52231;40.090;18.348;2024-01-30T02:07:32;14.02;;;5.43;;
65581;SDS011;52231;40.090;18.348;2024-01-30T02:10:12;11.57;;;4.95;;
65581;SDS011;52231;40.090;18.348;2024-01-30T02:13:11;11.02;;;4.80;;
65581;SDS011;52231;40.090;18.348;2024-01-30T02:15:48;13.48;;;4.78;;
65581;SDS011;52231;40.090;18.348;2024-01-30T02:18:35;13.93;;;5.47;;
65581;SDS011;52231;40.090;18.348;2024-01-30T02:21:24;12.45;;;5.03;;
65581;SDS011;52231;40.090;18.348;2024-01-30T02:23:58;14.70;;;4.78;;
65581;SDS011;52231;40.090;18.348;2024-01-30T02:26:38;12.45;;;5.00;;
65581;SDS011;52231;40.090;18.348;2024-01-30T02:29:18;14.35;;;5.00;;
65581;SDS011;52231;40.090;18.348;2024-01-30T02:32:09;14.63;;;5.50;;
65581;SDS011;52231;40.090;18.348;2024-01-30T02:34:53;12.13;;;4.93;;
65581;SDS011;52231;40.090;18.348;2024-01-30T02:37:31;14.07;;;4.85;;
65581;SDS011;52231;40.090;18.348;2024-01-30T02:40:14;13.13;;;4.72;;
65581;SDS011;52231;40.090;18.348;2024-01-30T02:42:57;13.00;;;5.00;;
65581;SDS011;52231;40.090;18.348;2024-01-30T02:46:01;12.27;;;5.15;;
65581;SDS011;52231;40.090;18.348;2024-01-30T02:48:50;13.32;;;5.25;;
65581;SDS011;52231;40.090;18.348;2024-01-30T02:51:49;12.82;;;4.68;;
65581;SDS011;52231;40.090;18.348;2024-01-30T02:54:44;11.45;;;4.53;;
65581;SDS011;52231;40.090;18.348;2024-01-30T02:57:22;11.23;;;4.78;;
65581;SDS011;52231;40.090;18.348;2024-01-30T03:00:10;13.38;;;4.53;;
65581;SDS011;52231;40.090;18.348;2024-01-30T03:03:00;12.60;;;4.63;;
65581;SDS011;52231;40.090;18.348;2024-01-30T03:05:42;12.40;;;4.75;;
65581;SDS011;52231;40.090;18.348;2024-01-30T03:09:19;11.20;;;4.55;;
65581;SDS011;52231;40.090;18.348;2024-01-30T03:12:04;10.27;;;4.63;;
65581;SDS011;52231;40.090;18.348;2024-01-30T03:15:10;10.82;;;4.07;;
65581;SDS011;52231;40.090;18.348;2024-01-30T03:17:58;12.45;;;4.60;;
65581;SDS011;52231;40.090;18.348;2024-01-30T03:20:49;12.90;;;4.82;;
65581;SDS011;52231;40.090;18.348;2024-01-30T03:23:55;12.45;;;4.53;;
65581;SDS011;52231;40.090;18.348;2024-01-30T03:26:41;10.95;;;4.78;;
65581;SDS011;52231;40.090;18.348;2024-01-30T03:29:22;11.73;;;4.28;;
65581;SDS011;52231;40.090;18.348;2024-01-30T03:32:02;12.40;;;4.70;;
65581;SDS011;52231;40.090;18.348;2024-01-30T03:34:46;10.98;;;4.38;;
65581;SDS011;52231;40.090;18.348;2024-01-30T03:37:44;11.38;;;4.55;;
65581;SDS011;52231;40.090;18.348;2024-01-30T03:40:24;11.70;;;4.80;;
65581;SDS011;52231;40.090;18.348;2024-01-30T03:43:10;9.93;;;4.22;;
65581;SDS011;52231;40.090;18.348;2024-01-30T03:45:55;12.80;;;4.47;;
65581;SDS011;52231;40.090;18.348;2024-01-30T03:48:37;11.30;;;4.60;;
65581;SDS011;52231;40.090;18.348;2024-01-30T03:51:41;9.57;;;4.28;;
65581;SDS011;52231;40.090;18.348;2024-01-30T03:54:21;12.68;;;4.50;;
65581;SDS011;52231;40.090;18.348;2024-01-30T03:57:13;11.15;;;4.32;;
65581;SDS011;52231;40.090;18.348;2024-01-30T03:59:41;11.90;;;4.20;;
65581;SDS011;52231;40.090;18.348;2024-01-30T04:02:10;10.73;;;4.53;;
65581;SDS011;52231;40.090;18.348;2024-01-30T04:04:41;10.93;;;4.53;;
65581;SDS011;52231;40.090;18.348;2024-01-30T04:07:10;10.77;;;4.25;;
65581;SDS011;52231;40.090;18.348;2024-01-30T04:09:38;11.15;;;4.22;;
65581;SDS011;52231;40.090;18.348;2024-01-30T04:12:07;13.25;;;5.03;;
65581;SDS011;52231;40.090;18.348;2024-01-30T04:14:35;10.10;;;4.30;;
65581;SDS011;52231;40.090;18.348;2024-01-30T04:17:05;10.07;;;4.07;;
65581;SDS011;52231;40.090;18.348;2024-01-30T04:19:36;9.32;;;4.40;;
65581;SDS011;52231;40.090;18.348;2024-01-30T04:22:05;10.77;;;4.30;;
65581;SDS011;52231;40.090;18.348;2024-01-30T04:24:33;12.73;;;4.40;;
65581;SDS011;52231;40.090;18.348;2024-01-30T04:27:01;11.48;;;4.40;;
65581;SDS011;52231;40.090;18.348;2024-01-30T04:29:30;11.23;;;4.40;;
65581;SDS011;52231;40.090;18.348;2024-01-30T04:31:59;13.27;;;4.78;;
65581;SDS011;52231;40.090;18.348;2024-01-30T04:34:27;12.68;;;4.53;;
65581;SDS011;52231;40.090;18.348;2024-01-30T04:36:56;10.70;;;4.35;;
65581;SDS011;52231;40.090;18.348;2024-01-30T04:39:24;10.50;;;4.50;;
65581;SDS011;52231;40.090;18.348;2024-01-30T04:41:52;15.80;;;6.95;;
65581;SDS011;52231;40.090;18.348;2024-01-30T04:44:20;13.23;;;6.40;;
65581;SDS011;52231;40.090;18.348;2024-01-30T04:46:49;14.57;;;5.57;;
65581;SDS011;52231;40.090;18.348;2024-01-30T04:49:17;12.07;;;4.70;;
65581;SDS011;52231;40.090;18.348;2024-01-30T04:51:45;13.25;;;5.05;;
65581;SDS011;52231;40.090;18.348;2024-01-30T04:54:13;11.68;;;5.05;;
65581;SDS011;52231;40.090;18.348;2024-01-30T04:56:41;10.98;;;4.35;;
65581;SDS011;52231;40.090;18.348;2024-01-30T04:59:09;10.68;;;4.78;;
65581;SDS011;52231;40.090;18.348;2024-01-30T05:01:37;11.25;;;4.00;;
65581;SDS011;52231;40.090;18.348;2024-01-30T05:04:09;9.98;;;4.53;;
65581;SDS011;52231;40.090;18.348;2024-01-30T05:06:39;11.35;;;4.85;;
65581;SDS011;52231;40.090;18.348;2024-01-30T05:09:07;11.35;;;4.32;;
65581;SDS011;52231;40.090;18.348;2024-01-30T05:11:37;11.40;;;4.22;;
65581;SDS011;52231;40.090;18.348;2024-01-30T05:14:06;10.25;;;3.97;;
65581;SDS011;52231;40.090;18.348;2024-01-30T05:16:36;8.27;;;3.33;;
65581;SDS011;52231;40.090;18.348;2024-01-30T05:19:04;9.13;;;4.03;;
65581;SDS011;52231;40.090;18.348;2024-01-30T05:21:32;11.95;;;4.30;;
65581;SDS011;52231;40.090;18.348;2024-01-30T05:24:01;10.15;;;4.15;;
65581;SDS011;52231;40.090;18.348;2024-01-30T05:26:29;9.98;;;4.03;;
65581;SDS011;52231;40.090;18.348;2024-01-30T05:28:57;16.40;;;6.00;;
65581;SDS011;52231;40.090;18.348;2024-01-30T05:31:26;15.68;;;4.85;;
65581;SDS011;52231;40.090;18.348;2024-01-30T05:33:54;11.93;;;4.50;;
65581;SDS011;52231;40.090;18.348;2024-01-30T05:36:22;10.98;;;4.10;;
65581;SDS011;52231;40.090;18.348;2024-01-30T05:38:51;8.93;;;3.53;;
65581;SDS011;52231;40.090;18.348;2024-01-30T05:41:19;12.10;;;3.92;;
65581;SDS011;52231;40.090;18.348;2024-01-30T05:43:48;10.95;;;4.28;;
65581;SDS011;52231;40.090;18.348;2024-01-30T05:46:19;9.15;;;3.38;;
65581;SDS011;52231;40.090;18.348;2024-01-30T05:48:50;8.57;;;3.42;;
65581;SDS011;52231;40.090;18.348;2024-01-30T05:51:18;8.70;;;3.20;;
65581;SDS011;52231;40.090;18.348;2024-01-30T05:53:46;6.45;;;3.03;;
65581;SDS011;52231;40.090;18.348;2024-01-30T05:56:15;10.10;;;3.30;;
65581;SDS011;52231;40.090;18.348;2024-01-30T05:58:43;7.85;;;3.30;;
65581;SDS011;52231;40.090;18.348;2024-01-30T06:01:11;8.80;;;3.42;;
65581;SDS011;52231;40.090;18.348;2024-01-30T06:03:39;8.90;;;3.08;;
65581;SDS011;52231;40.090;18.348;2024-01-30T06:06:08;8.43;;;3.38;;
65581;SDS011;52231;40.090;18.348;2024-01-30T06:08:36;8.35;;;3.25;;
65581;SDS011;52231;40.090;18.348;2024-01-30T06:11:04;7.38;;;2.95;;
65581;SDS011;52231;40.090;18.348;2024-01-30T06:13:33;8.48;;;3.05;;
65581;SDS011;52231;40.090;18.348;2024-01-30T06:16:01;8.35;;;3.15;;
65581;SDS011;52231;40.090;18.348;2024-01-30T06:18:29;8.45;;;3.22;;
65581;SDS011;52231;40.090;18.348;2024-01-30T06:23:26;6.93;;;2.78;;
65581;SDS011;52231;40.090;18.348;2024-01-30T06:25:55;7.22;;;2.80;;
65581;SDS011;52231;40.090;18.348;2024-01-30T06:28:23;8.60;;;3.25;;
65581;SDS011;52231;40.090;18.348;2024-01-30T06:30:51;9.40;;;3.00;;
65581;SDS011;52231;40.090;18.348;2024-01-30T06:33:19;8.73;;;3.15;;
65581;SDS011;52231;40.090;18.348;2024-01-30T06:35:47;8.48;;;3.22;;
65581;SDS011;52231;40.090;18.348;2024-01-30T06:38:16;8.45;;;3.22;;
65581;SDS011;52231;40.090;18.348;2024-01-30T06:40:44;7.85;;;3.45;;
65581;SDS011;52231;40.090;18.348;2024-01-30T06:43:12;9.40;;;3.20;;
65581;SDS011;52231;40.090;18.348;2024-01-30T06:45:40;8.50;;;3.35;;
65581;SDS011;52231;40.090;18.348;2024-01-30T06:48:10;7.60;;;3.10;;
65581;SDS011;52231;40.090;18.348;2024-01-30T06:50:38;9.30;;;3.55;;
65581;SDS011;52231;40.090;18.348;2024-01-30T06:53:06;7.18;;;3.08;;
65581;SDS011;52231;40.090;18.348;2024-01-30T06:55:34;8.05;;;3.17;;
65581;SDS011;52231;40.090;18.348;2024-01-30T06:58:02;10.52;;;3.20;;
65581;SDS011;52231;40.090;18.348;2024-01-30T07:00:31;10.30;;;3.30;;
65581;SDS011;52231;40.090;18.348;2024-01-30T07:02:59;10.10;;;3.30;;
65581;SDS011;52231;40.090;18.348;2024-01-30T07:05:27;8.73;;;3.28;;
65581;SDS011;52231;40.090;18.348;2024-01-30T07:07:55;8.95;;;3.15;;
65581;SDS011;52231;40.090;18.348;2024-01-30T07:10:23;7.82;;;2.92;;
65581;SDS011;52231;40.090;18.348;2024-01-30T07:12:51;6.72;;;2.90;;
65581;SDS011;52231;40.090;18.348;2024-01-30T07:15:20;7.20;;;2.83;;
65581;SDS011;52231;40.090;18.348;2024-01-30T07:17:48;8.07;;;3.22;;
65581;SDS011;52231;40.090;18.348;2024-01-30T07:20:16;10.00;;;3.00;;
65581;SDS011;52231;40.090;18.348;2024-01-30T07:22:47;9.25;;;3.15;;
65581;SDS011;52231;40.090;18.348;2024-01-30T07:25:15;6.90;;;3.17;;
65581;SDS011;52231;40.090;18.348;2024-01-30T07:27:44;9.02;;;2.63;;
65581;SDS011;52231;40.090;18.348;2024-01-30T07:30:12;12.55;;;3.05;;
65581;SDS011;52231;40.090;18.348;2024-01-30T07:32:41;8.48;;;2.85;;
65581;SDS011;52231;40.090;18.348;2024-01-30T07:35:09;5.75;;;2.63;;
65581;SDS011;52231;40.090;18.348;2024-01-30T07:37:38;6.53;;;2.67;;
65581;SDS011;52231;40.090;18.348;2024-01-30T07:40:07;8.90;;;2.97;;
65581;SDS011;52231;40.090;18.348;2024-01-30T07:42:35;6.28;;;2.65;;
65581;SDS011;52231;40.090;18.348;2024-01-30T07:45:04;6.72;;;2.72;;
65581;SDS011;52231;40.090;18.348;2024-01-30T07:47:37;8.73;;;3.05;;
65581;SDS011;52231;40.090;18.348;2024-01-30T07:50:06;7.00;;;3.05;;
65581;SDS011;52231;40.090;18.348;2024-01-30T07:55:02;7.22;;;2.65;;
65581;SDS011;52231;40.090;18.348;2024-01-30T07:57:31;8.00;;;2.80;;
65581;SDS011;52231;40.090;18.348;2024-01-30T08:00:00;7.75;;;2.60;;
65581;SDS011;52231;40.090;18.348;2024-01-30T08:02:33;7.60;;;2.85;;
65581;SDS011;52231;40.090;18.348;2024-01-30T08:05:01;8.15;;;2.63;;
65581;SDS011;52231;40.090;18.348;2024-01-30T08:07:30;9.65;;;2.70;;
65581;SDS011;52231;40.090;18.348;2024-01-30T08:09:58;6.70;;;2.50;;
65581;SDS011;52231;40.090;18.348;2024-01-30T08:12:26;6.55;;;2.70;;
65581;SDS011;52231;40.090;18.348;2024-01-30T08:14:55;8.05;;;2.30;;
65581;SDS011;52231;40.090;18.348;2024-01-30T08:17:23;5.47;;;2.30;;
65581;SDS011;52231;40.090;18.348;2024-01-30T08:19:51;6.78;;;2.55;;
65581;SDS011;52231;40.090;18.348;2024-01-30T08:22:19;8.50;;;2.70;;
65581;SDS011;52231;40.090;18.348;2024-01-30T08:24:48;6.95;;;2.80;;
65581;SDS011;52231;40.090;18.348;2024-01-30T08:27:16;9.18;;;2.80;;
65581;SDS011;52231;40.090;18.348;2024-01-30T08:29:44;6.18;;;2.40;;
65581;SDS011;52231;40.090;18.348;2024-01-30T08:32:12;6.75;;;2.92;;
65581;SDS011;52231;40.090;18.348;2024-01-30T08:34:41;5.70;;;2.35;;
65581;SDS011;52231;40.090;18.348;2024-01-30T08:37:09;5.20;;;2.30;;
65581;SDS011;52231;40.090;18.348;2024-01-30T08:39:37;9.32;;;2.80;;
65581;SDS011;52231;40.090;18.348;2024-01-30T08:42:06;6.88;;;2.60;;
65581;SDS011;52231;40.090;18.348;2024-01-30T08:44:35;9.63;;;2.58;;
65581;SDS011;52231;40.090;18.348;2024-01-30T08:47:03;5.82;;;2.50;;
65581;SDS011;52231;40.090;18.348;2024-01-30T08:52:00;5.35;;;2.55;;
65581;SDS011;52231;40.090;18.348;2024-01-30T08:54:28;5.85;;;2.65;;
65581;SDS011;52231;40.090;18.348;2024-01-30T08:56:56;6.95;;;2.78;;
65581;SDS011;52231;40.090;18.348;2024-01-30T08:59:25;6.57;;;2.90;;
65581;SDS011;52231;40.090;18.348;2024-01-30T09:01:53;7.80;;;2.72;;
65581;SDS011;52231;40.090;18.348;2024-01-30T09:04:26;7.88;;;2.40;;
65581;SDS011;52231;40.090;18.348;2024-01-30T09:06:54;5.45;;;2.40;;
65581;SDS011;52231;40.090;18.348;2024-01-30T09:09:22;6.78;;;2.70;;
65581;SDS011;52231;40.090;18.348;2024-01-30T09:11:50;7.07;;;2.80;;
65581;SDS011;52231;40.090;18.348;2024-01-30T09:14:18;6.00;;;3.08;;
65581;SDS011;52231;40.090;18.348;2024-01-30T09:16:47;6.65;;;2.42;;
65581;SDS011;52231;40.090;18.348;2024-01-30T09:19:16;6.68;;;2.60;;
65581;SDS011;52231;40.090;18.348;2024-01-30T09:21:44;7.55;;;2.60;;
65581;SDS011;52231;40.090;18.348;2024-01-30T09:24:13;6.28;;;2.65;;
65581;SDS011;52231;40.090;18.348;2024-01-30T09:26:41;6.78;;;2.47;;
65581;SDS011;52231;40.090;18.348;2024-01-30T09:29:09;7.80;;;3.08;;
65581;SDS011;52231;40.090;18.348;2024-01-30T09:31:37;6.32;;;3.13;;
65581;SDS011;52231;40.090;18.348;2024-01-30T09:34:06;6.20;;;2.78;;
65581;SDS011;52231;40.090;18.348;2024-01-30T09:36:34;6.68;;;2.63;;
65581;SDS011;52231;40.090;18.348;2024-01-30T09:39:02;6.90;;;2.85;;
65581;SDS011;52231;40.090;18.348;2024-01-30T09:41:37;5.80;;;2.35;;
65581;SDS011;52231;40.090;18.348;2024-01-30T09:44:39;5.90;;;2.58;;
65581;SDS011;52231;40.090;18.348;2024-01-30T09:47:10;7.05;;;2.42;;
65581;SDS011;52231;40.090;18.348;2024-01-30T09:49:39;7.05;;;2.60;;
65581;SDS011;52231;40.090;18.348;2024-01-30T09:52:11;6.60;;;2.70;;
65581;SDS011;52231;40.090;18.348;2024-01-30T09:54:40;4.82;;;2.10;;
65581;SDS011;52231;40.090;18.348;2024-01-30T09:57:09;7.28;;;3.08;;
65581;SDS011;52231;40.090;18.348;2024-01-30T09:59:38;7.18;;;2.45;;
65581;SDS011;52231;40.090;18.348;2024-01-30T10:02:06;5.97;;;2.42;;
65581;SDS011;52231;40.090;18.348;2024-01-30T10:04:35;4.85;;;2.20;;
65581;SDS011;52231;40.090;18.348;2024-01-30T10:07:04;9.23;;;2.88;;
65581;SDS011;52231;40.090;18.348;2024-01-30T10:09:32;6.65;;;2.53;;
65581;SDS011;52231;40.090;18.348;2024-01-30T10:12:02;6.13;;;2.60;;
65581;SDS011;52231;40.090;18.348;2024-01-30T10:14:31;7.72;;;2.90;;
65581;SDS011;52231;40.090;18.348;2024-01-30T10:17:00;6.57;;;2.65;;
65581;SDS011;52231;40.090;18.348;2024-01-30T10:19:31;7.95;;;3.03;;
65581;SDS011;52231;40.090;18.348;2024-01-30T10:21:59;6.40;;;2.80;;
65581;SDS011;52231;40.090;18.348;2024-01-30T10:24:33;6.20;;;2.88;;
65581;SDS011;52231;40.090;18.348;2024-01-30T10:29:30;5.78;;;2.58;;
65581;SDS011;52231;40.090;18.348;2024-01-30T10:32:02;6.75;;;2.90;;
65581;SDS011;52231;40.090;18.348;2024-01-30T10:34:31;6.00;;;3.08;;
65581;SDS011;52231;40.090;18.348;2024-01-30T10:37:08;6.63;;;2.47;;
65581;SDS011;52231;40.090;18.348;2024-01-30T10:39:43;6.10;;;2.30;;
65581;SDS011;52231;40.090;18.348;2024-01-30T10:42:17;6.70;;;2.78;;
65581;SDS011;52231;40.090;18.348;2024-01-30T10:47:37;7.00;;;2.38;;
65581;SDS011;52231;40.090;18.348;2024-01-30T10:50:10;6.97;;;3.47;;
65581;SDS011;52231;40.090;18.348;2024-01-30T10:52:39;5.20;;;2.50;;
65581;SDS011;52231;40.090;18.348;2024-01-30T10:55:09;7.82;;;2.72;;
65581;SDS011;52231;40.090;18.348;2024-01-30T10:57:38;4.35;;;2.10;;
65581;SDS011;52231;40.090;18.348;2024-01-30T11:00:10;7.93;;;3.30;;
65581;SDS011;52231;40.090;18.348;2024-01-30T11:02:41;8.57;;;3.50;;
65581;SDS011;52231;40.090;18.348;2024-01-30T11:05:11;13.45;;;5.80;;
65581;SDS011;52231;40.090;18.348;2024-01-30T11:07:40;5.50;;;2.67;;
65581;SDS011;52231;40.090;18.348;2024-01-30T11:12:40;5.50;;;2.30;;
65581;SDS011;52231;40.090;18.348;2024-01-30T11:15:11;6.85;;;2.65;;
65581;SDS011;52231;40.090;18.348;2024-01-30T11:20:15;5.32;;;2.30;;
65581;SDS011;52231;40.090;18.348;2024-01-30T11:22:47;7.25;;;2.35;;
65581;SDS011;52231;40.090;18.348;2024-01-30T11:25:19;5.55;;;2.38;;
65581;SDS011;52231;40.090;18.348;2024-01-30T11:27:49;5.28;;;2.40;;
65581;SDS011;52231;40.090;18.348;2024-01-30T11:33:29;5.57;;;2.65;;
65581;SDS011;52231;40.090;18.348;2024-01-30T11:36:00;7.78;;;2.90;;
65581;SDS011;52231;40.090;18.348;2024-01-30T11:38:33;11.05;;;5.28;;
65581;SDS011;52231;40.090;18.348;2024-01-30T11:41:02;10.57;;;2.55;;
65581;SDS011;52231;40.090;18.348;2024-01-30T11:43:31;5.38;;;2.30;;
65581;SDS011;52231;40.090;18.348;2024-01-30T11:46:00;9.32;;;3.70;;
65581;SDS011;52231;40.090;18.348;2024-01-30T11:48:29;10.60;;;3.75;;
65581;SDS011;52231;40.090;18.348;2024-01-30T11:50:58;5.80;;;2.30;;
65581;SDS011;52231;40.090;18.348;2024-01-30T11:53:26;9.45;;;3.13;;
65581;SDS011;52231;40.090;18.348;2024-01-30T11:55:55;5.95;;;2.40;;
65581;SDS011;52231;40.090;18.348;2024-01-30T11:58:24;8.85;;;3.20;;
65581;SDS011;52231;40.090;18.348;2024-01-30T12:00:54;12.20;;;3.10;;
65581;SDS011;52231;40.090;18.348;2024-01-30T12:03:23;8.18;;;2.90;;
65581;SDS011;52231;40.090;18.348;2024-01-30T12:08:26;7.25;;;2.58;;
65581;SDS011;52231;40.090;18.348;2024-01-30T12:10:55;7.25;;;2.38;;
65581;SDS011;52231;40.090;18.348;2024-01-30T12:13:30;7.13;;;2.90;;
65581;SDS011;52231;40.090;18.348;2024-01-30T12:15:59;6.72;;;2.33;;
65581;SDS011;52231;40.090;18.348;2024-01-30T12:18:28;4.43;;;2.15;;
65581;SDS011;52231;40.090;18.348;2024-01-30T12:20:57;4.60;;;1.92;;
65581;SDS011;52231;40.090;18.348;2024-01-30T12:23:29;5.25;;;2.00;;
65581;SDS011;52231;40.090;18.348;2024-01-30T12:25:57;6.95;;;2.83;;
65581;SDS011;52231;40.090;18.348;2024-01-30T12:28:26;5.10;;;2.28;;
65581;SDS011;52231;40.090;18.348;2024-01-30T12:31:00;7.88;;;2.45;;
65581;SDS011;52231;40.090;18.348;2024-01-30T12:33:32;3.78;;;1.73;;
65581;SDS011;52231;40.090;18.348;2024-01-30T12:36:03;5.28;;;2.03;;
65581;SDS011;52231;40.090;18.348;2024-01-30T12:38:32;6.40;;;1.90;;
65581;SDS011;52231;40.090;18.348;2024-01-30T12:41:00;5.72;;;2.00;;
65581;SDS011;52231;40.090;18.348;2024-01-30T12:43:29;5.85;;;2.10;;
65581;SDS011;52231;40.090;18.348;2024-01-30T12:45:57;4.68;;;2.13;;
65581;SDS011;52231;40.090;18.348;2024-01-30T12:48:26;5.55;;;2.00;;
65581;SDS011;52231;40.090;18.348;2024-01-30T12:50:57;3.97;;;1.98;;
65581;SDS011;52231;40.090;18.348;2024-01-30T12:53:25;5.60;;;2.40;;
65581;SDS011;52231;40.090;18.348;2024-01-30T12:55:54;4.47;;;1.98;;
65581;SDS011;52231;40.090;18.348;2024-01-30T12:58:22;4.18;;;2.00;;
65581;SDS011;52231;40.090;18.348;2024-01-30T13:00:50;4.35;;;2.05;;
65581;SDS011;52231;40.090;18.348;2024-01-30T13:03:19;5.68;;;1.98;;
65581;SDS011;52231;40.090;18.348;2024-01-30T13:05:47;4.22;;;1.90;;
65581;SDS011;52231;40.090;18.348;2024-01-30T13:08:16;4.03;;;1.92;;
65581;SDS011;52231;40.090;18.348;2024-01-30T13:10:45;7.55;;;2.33;;
65581;SDS011;52231;40.090;18.348;2024-01-30T13:13:14;4.45;;;1.83;;
65581;SDS011;52231;40.090;18.348;2024-01-30T13:15:42;3.20;;;1.63;;
65581;SDS011;52231;40.090;18.348;2024-01-30T13:18:11;5.60;;;2.20;;
65581;SDS011;52231;40.090;18.348;2024-01-30T13:20:39;5.20;;;2.20;;
65581;SDS011;52231;40.090;18.348;2024-01-30T13:23:07;5.15;;;2.08;;
65581;SDS011;52231;40.090;18.348;2024-01-30T13:25:36;5.57;;;2.08;;
65581;SDS011;52231;40.090;18.348;2024-01-30T13:28:04;6.00;;;1.90;;
65581;SDS011;52231;40.090;18.348;2024-01-30T13:30:32;3.83;;;1.80;;
65581;SDS011;52231;40.090;18.348;2024-01-30T13:33:01;4.22;;;1.73;;
65581;SDS011;52231;40.090;18.348;2024-01-30T13:35:30;5.05;;;1.92;;
65581;SDS011;52231;40.090;18.348;2024-01-30T13:37:59;4.93;;;1.73;;
65581;SDS011;52231;40.090;18.348;2024-01-30T13:40:27;5.50;;;1.70;;
65581;SDS011;52231;40.090;18.348;2024-01-30T13:42:56;6.10;;;2.25;;
65581;SDS011;52231;40.090;18.348;2024-01-30T13:45:24;6.07;;;2.03;;
65581;SDS011;52231;40.090;18.348;2024-01-30T13:47:55;4.28;;;2.00;;
65581;SDS011;52231;40.090;18.348;2024-01-30T13:50:25;5.00;;;2.40;;
65581;SDS011;52231;40.090;18.348;2024-01-30T13:52:54;4.57;;;2.00;;
65581;SDS011;52231;40.090;18.348;2024-01-30T13:55:24;4.93;;;2.05;;
65581;SDS011;52231;40.090;18.348;2024-01-30T13:57:52;6.93;;;2.17;;
65581;SDS011;52231;40.090;18.348;2024-01-30T14:00:21;5.95;;;2.70;;
65581;SDS011;52231;40.090;18.348;2024-01-30T14:02:50;10.63;;;3.40;;
65581;SDS011;52231;40.090;18.348;2024-01-30T14:05:18;9.10;;;2.90;;
65581;SDS011;52231;40.090;18.348;2024-01-30T14:07:48;5.30;;;2.20;;
65581;SDS011;52231;40.090;18.348;2024-01-30T14:10:24;6.65;;;2.40;;
65581;SDS011;52231;40.090;18.348;2024-01-30T14:12:53;4.97;;;2.08;;
65581;SDS011;52231;40.090;18.348;2024-01-30T14:15:21;8.15;;;2.90;;
65581;SDS011;52231;40.090;18.348;2024-01-30T14:17:49;6.05;;;2.78;;
65581;SDS011;52231;40.090;18.348;2024-01-30T14:20:18;6.38;;;2.50;;
65581;SDS011;52231;40.090;18.348;2024-01-30T14:22:46;7.43;;;2.80;;
65581;SDS011;52231;40.090;18.348;2024-01-30T14:25:14;6.55;;;2.63;;
65581;SDS011;52231;40.090;18.348;2024-01-30T14:27:44;6.88;;;2.55;;
65581;SDS011;52231;40.090;18.348;2024-01-30T14:30:13;5.15;;;2.38;;
65581;SDS011;52231;40.090;18.348;2024-01-30T14:32:41;8.93;;;2.35;;
65581;SDS011;52231;40.090;18.348;2024-01-30T14:35:12;8.00;;;2.70;;
65581;SDS011;52231;40.090;18.348;2024-01-30T14:37:43;5.88;;;2.40;;
65581;SDS011;52231;40.090;18.348;2024-01-30T14:40:12;6.18;;;2.70;;
65581;SDS011;52231;40.090;18.348;2024-01-30T14:42:40;4.57;;;2.30;;
65581;SDS011;52231;40.090;18.348;2024-01-30T14:45:09;6.22;;;2.60;;
65581;SDS011;52231;40.090;18.348;2024-01-30T14:47:37;7.78;;;3.03;;
65581;SDS011;52231;40.090;18.348;2024-01-30T14:50:05;5.68;;;2.42;;
65581;SDS011;52231;40.090;18.348;2024-01-30T14:52:34;8.43;;;4.00;;
65581;SDS011;52231;40.090;18.348;2024-01-30T14:55:03;5.78;;;2.63;;
65581;SDS011;52231;40.090;18.348;2024-01-30T14:57:31;7.63;;;3.20;;
65581;SDS011;52231;40.090;18.348;2024-01-30T15:00:02;7.35;;;2.90;;
65581;SDS011;52231;40.090;18.348;2024-01-30T15:02:30;7.82;;;3.03;;
65581;SDS011;52231;40.090;18.348;2024-01-30T15:04:58;8.55;;;3.50;;
65581;SDS011;52231;40.090;18.348;2024-01-30T15:07:27;9.23;;;3.83;;
65581;SDS011;52231;40.090;18.348;2024-01-30T15:09:59;8.35;;;3.30;;
65581;SDS011;52231;40.090;18.348;2024-01-30T15:12:27;7.70;;;3.40;;
65581;SDS011;52231;40.090;18.348;2024-01-30T15:14:55;7.13;;;3.25;;
65581;SDS011;52231;40.090;18.348;2024-01-30T15:17:23;8.10;;;3.35;;
65581;SDS011;52231;40.090;18.348;2024-01-30T15:19:51;8.85;;;3.40;;
65581;SDS011;52231;40.090;18.348;2024-01-30T15:22:19;9.02;;;3.70;;
65581;SDS011;52231;40.090;18.348;2024-01-30T15:24:47;8.63;;;3.60;;
65581;SDS011;52231;40.090;18.348;2024-01-30T15:27:15;10.02;;;3.70;;
65581;SDS011;52231;40.090;18.348;2024-01-30T15:29:43;8.30;;;3.45;;
65581;SDS011;52231;40.090;18.348;2024-01-30T15:32:12;12.15;;;3.92;;
65581;SDS011;52231;40.090;18.348;2024-01-30T15:34:40;8.95;;;3.50;;
65581;SDS011;52231;40.090;18.348;2024-01-30T15:37:08;7.82;;;3.95;;